sensor_id;sensor_type;location;lat;lon;timestamp;temperature;humidity
81935;DHT22;71405;47.674;-2.050;2024-03-06T00:02:23;18.40;51.10
81935;DHT22;71405;47.674;-2.050;2024-03-06T00:04:48;18.40;51.60
81935;DHT22;71405;47.674;-2.050;2024-03-06T00:07:14;18.40;51.60
81935;DHT22;71405;47.674;-2.050;2024-03-06T00:09:39;18.40;51.00
81935;DHT22;71405;47.674;-2.050;2024-03-06T00:12:05;18.40;50.90
81935;DHT22;71405;47.674;-2.050;2024-03-06T00:14:31;18.40;50.80
81935;DHT22;71405;47.674;-2.050;2024-03-06T00:16:57;18.40;50.70
81935;DHT22;71405;47.674;-2.050;2024-03-06T00:19:23;18.40;50.30
81935;DHT22;71405;47.674;-2.050;2024-03-06T00:21:48;18.40;50.60
81935;DHT22;71405;47.674;-2.050;2024-03-06T00:24:15;18.40;50.00
81935;DHT22;71405;47.674;-2.050;2024-03-06T00:26:41;18.40;50.50
81935;DHT22;71405;47.674;-2.050;2024-03-06T00:29:08;18.40;50.60
81935;DHT22;71405;47.674;-2.050;2024-03-06T00:31:33;18.40;50.80
81935;DHT22;71405;47.674;-2.050;2024-03-06T00:33:59;18.40;50.80
81935;DHT22;71405;47.674;-2.050;2024-03-06T00:36:25;18.40;50.50
81935;DHT22;71405;47.674;-2.050;2024-03-06T00:38:50;18.40;50.60
81935;DHT22;71405;47.674;-2.050;2024-03-06T00:41:16;18.30;50.40
81935;DHT22;71405;47.674;-2.050;2024-03-06T00:43:51;18.40;50.80
81935;DHT22;71405;47.674;-2.050;2024-03-06T00:46:17;18.40;50.40
81935;DHT22;71405;47.674;-2.050;2024-03-06T00:48:42;18.40;50.70
81935;DHT22;71405;47.674;-2.050;2024-03-06T00:51:08;18.40;50.60
81935;DHT22;71405;47.674;-2.050;2024-03-06T00:53:37;18.40;50.30
81935;DHT22;71405;47.674;-2.050;2024-03-06T00:56:03;18.40;50.60
81935;DHT22;71405;47.674;-2.050;2024-03-06T00:58:28;18.40;50.50
81935;DHT22;71405;47.674;-2.050;2024-03-06T01:00:54;18.30;50.60
81935;DHT22;71405;47.674;-2.050;2024-03-06T01:03:20;18.30;50.70
81935;DHT22;71405;47.674;-2.050;2024-03-06T01:05:46;18.30;50.70
81935;DHT22;71405;47.674;-2.050;2024-03-06T01:08:12;18.30;50.10
81935;DHT22;71405;47.674;-2.050;2024-03-06T01:10:37;18.30;50.60
81935;DHT22;71405;47.674;-2.050;2024-03-06T01:13:03;18.30;50.10
81935;DHT22;71405;47.674;-2.050;2024-03-06T01:15:29;18.30;50.00
81935;DHT22;71405;47.674;-2.050;2024-03-06T01:17:54;18.30;50.20
81935;DHT22;71405;47.674;-2.050;2024-03-06T01:20:20;18.30;50.00
81935;DHT22;71405;47.674;-2.050;2024-03-06T01:22:46;18.30;50.20
81935;DHT22;71405;47.674;-2.050;2024-03-06T01:25:12;18.30;50.40
81935;DHT22;71405;47.674;-2.050;2024-03-06T01:27:37;18.30;50.50
81935;DHT22;71405;47.674;-2.050;2024-03-06T01:30:04;18.30;50.00
81935;DHT22;71405;47.674;-2.050;2024-03-06T01:32:29;18.30;50.10
81935;DHT22;71405;47.674;-2.050;2024-03-06T01:34:55;18.30;50.40
81935;DHT22;71405;47.674;-2.050;2024-03-06T01:37:21;18.30;50.00
81935;DHT22;71405;47.674;-2.050;2024-03-06T01:39:46;18.30;50.00
81935;DHT22;71405;47.674;-2.050;2024-03-06T01:42:12;18.30;49.60
81935;DHT22;71405;47.674;-2.050;2024-03-06T01:44:38;18.30;50.20
81935;DHT22;71405;47.674;-2.050;2024-03-06T01:47:03;18.30;50.20
81935;DHT22;71405;47.674;-2.050;2024-03-06T01:49:29;18.30;50.10
81935;DHT22;71405;47.674;-2.050;2024-03-06T01:51:57;18.30;50.00
81935;DHT22;71405;47.674;-2.050;2024-03-06T01:54:23;18.30;50.30
81935;DHT22;71405;47.674;-2.050;2024-03-06T01:56:50;18.30;50.00
81935;DHT22;71405;47.674;-2.050;2024-03-06T01:59:18;18.30;50.10
81935;DHT22;71405;47.674;-2.050;2024-03-06T02:01:45;18.30;50.20
81935;DHT22;71405;47.674;-2.050;2024-03-06T02:04:12;18.30;50.10
81935;DHT22;71405;47.674;-2.050;2024-03-06T02:06:41;18.30;50.40
81935;DHT22;71405;47.674;-2.050;2024-03-06T02:09:08;18.30;50.40
81935;DHT22;71405;47.674;-2.050;2024-03-06T02:11:35;18.30;50.60
81935;DHT22;71405;47.674;-2.050;2024-03-06T02:14:02;18.30;50.30
81935;DHT22;71405;47.674;-2.050;2024-03-06T02:16:28;18.30;50.70
81935;DHT22;71405;47.674;-2.050;2024-03-06T02:18:55;18.30;50.10
81935;DHT22;71405;47.674;-2.050;2024-03-06T02:21:23;18.30;49.70
81935;DHT22;71405;47.674;-2.050;2024-03-06T02:23:49;18.30;50.10
81935;DHT22;71405;47.674;-2.050;2024-03-06T02:26:17;18.30;49.90
81935;DHT22;71405;47.674;-2.050;2024-03-06T02:28:49;18.30;50.90
81935;DHT22;71405;47.674;-2.050;2024-03-06T02:31:16;18.30;50.20
81935;DHT22;71405;47.674;-2.050;2024-03-06T02:33:43;18.30;50.60
81935;DHT22;71405;47.674;-2.050;2024-03-06T02:36:10;18.30;50.90
81935;DHT22;71405;47.674;-2.050;2024-03-06T02:38:36;18.30;51.50
81935;DHT22;71405;47.674;-2.050;2024-03-06T02:41:02;18.20;50.70
81935;DHT22;71405;47.674;-2.050;2024-03-06T02:43:28;18.20;50.40
81935;DHT22;71405;47.674;-2.050;2024-03-06T02:45:54;18.20;50.00
81935;DHT22;71405;47.674;-2.050;2024-03-06T02:48:19;18.30;49.90
81935;DHT22;71405;47.674;-2.050;2024-03-06T02:50:45;18.20;50.10
81935;DHT22;71405;47.674;-2.050;2024-03-06T02:53:11;18.20;50.30
81935;DHT22;71405;47.674;-2.050;2024-03-06T02:55:36;18.20;49.80
81935;DHT22;71405;47.674;-2.050;2024-03-06T02:58:02;18.20;50.00
81935;DHT22;71405;47.674;-2.050;2024-03-06T03:00:28;18.20;49.80
81935;DHT22;71405;47.674;-2.050;2024-03-06T03:02:54;18.20;49.80
81935;DHT22;71405;47.674;-2.050;2024-03-06T03:05:19;18.20;50.10
81935;DHT22;71405;47.674;-2.050;2024-03-06T03:07:45;18.20;50.40
81935;DHT22;71405;47.674;-2.050;2024-03-06T03:10:11;18.20;49.90
81935;DHT22;71405;47.674;-2.050;2024-03-06T03:12:40;18.20;50.20
81935;DHT22;71405;47.674;-2.050;2024-03-06T03:15:06;18.20;49.80
81935;DHT22;71405;47.674;-2.050;2024-03-06T03:17:32;18.20;50.20
81935;DHT22;71405;47.674;-2.050;2024-03-06T03:20:02;18.20;49.80
81935;DHT22;71405;47.674;-2.050;2024-03-06T03:22:42;18.20;50.00
81935;DHT22;71405;47.674;-2.050;2024-03-06T03:25:09;18.20;49.70
81935;DHT22;71405;47.674;-2.050;2024-03-06T03:27:37;18.20;50.00
81935;DHT22;71405;47.674;-2.050;2024-03-06T03:30:03;18.20;49.60
81935;DHT22;71405;47.674;-2.050;2024-03-06T03:32:28;18.20;49.50
81935;DHT22;71405;47.674;-2.050;2024-03-06T03:34:54;18.20;49.80
81935;DHT22;71405;47.674;-2.050;2024-03-06T03:37:20;18.20;50.00
81935;DHT22;71405;47.674;-2.050;2024-03-06T03:39:46;18.20;49.90
81935;DHT22;71405;47.674;-2.050;2024-03-06T03:42:11;18.20;49.90
81935;DHT22;71405;47.674;-2.050;2024-03-06T03:44:37;18.20;49.80
81935;DHT22;71405;47.674;-2.050;2024-03-06T03:47:03;18.20;49.60
81935;DHT22;71405;47.674;-2.050;2024-03-06T03:49:28;18.20;49.80
81935;DHT22;71405;47.674;-2.050;2024-03-06T03:51:54;18.20;49.30
81935;DHT22;71405;47.674;-2.050;2024-03-06T03:54:20;18.20;50.00
81935;DHT22;71405;47.674;-2.050;2024-03-06T03:56:45;18.20;49.60
81935;DHT22;71405;47.674;-2.050;2024-03-06T03:59:11;18.20;50.00
81935;DHT22;71405;47.674;-2.050;2024-03-06T04:01:37;18.20;49.90
81935;DHT22;71405;47.674;-2.050;2024-03-06T04:04:03;18.20;49.40
81935;DHT22;71405;47.674;-2.050;2024-03-06T04:06:28;18.20;49.50
81935;DHT22;71405;47.674;-2.050;2024-03-06T04:08:54;18.20;49.50
81935;DHT22;71405;47.674;-2.050;2024-03-06T04:11:20;18.20;49.70
81935;DHT22;71405;47.674;-2.050;2024-03-06T04:13:45;18.20;49.40
81935;DHT22;71405;47.674;-2.050;2024-03-06T04:16:16;18.30;48.90
81935;DHT22;71405;47.674;-2.050;2024-03-06T04:18:42;18.30;49.00
81935;DHT22;71405;47.674;-2.050;2024-03-06T04:21:08;18.30;49.00
81935;DHT22;71405;47.674;-2.050;2024-03-06T04:23:35;18.30;49.00
81935;DHT22;71405;47.674;-2.050;2024-03-06T04:26:01;18.30;49.10
81935;DHT22;71405;47.674;-2.050;2024-03-06T04:28:27;18.30;49.30
81935;DHT22;71405;47.674;-2.050;2024-03-06T04:30:53;18.30;49.10
81935;DHT22;71405;47.674;-2.050;2024-03-06T04:33:19;18.30;49.10
81935;DHT22;71405;47.674;-2.050;2024-03-06T04:35:45;18.30;49.00
81935;DHT22;71405;47.674;-2.050;2024-03-06T04:38:11;18.30;48.90
81935;DHT22;71405;47.674;-2.050;2024-03-06T04:40:37;18.30;48.70
81935;DHT22;71405;47.674;-2.050;2024-03-06T04:43:02;18.30;48.50
81935;DHT22;71405;47.674;-2.050;2024-03-06T04:45:28;18.30;48.70
81935;DHT22;71405;47.674;-2.050;2024-03-06T04:47:55;18.30;48.90
81935;DHT22;71405;47.674;-2.050;2024-03-06T04:50:20;18.30;48.70
81935;DHT22;71405;47.674;-2.050;2024-03-06T04:52:46;18.30;48.80
81935;DHT22;71405;47.674;-2.050;2024-03-06T04:55:12;18.30;48.50
81935;DHT22;71405;47.674;-2.050;2024-03-06T04:57:43;18.30;48.40
81935;DHT22;71405;47.674;-2.050;2024-03-06T05:00:10;18.30;48.40
81935;DHT22;71405;47.674;-2.050;2024-03-06T05:02:36;18.30;48.70
81935;DHT22;71405;47.674;-2.050;2024-03-06T05:05:03;18.30;48.50
81935;DHT22;71405;47.674;-2.050;2024-03-06T05:07:30;18.30;48.60
81935;DHT22;71405;47.674;-2.050;2024-03-06T05:09:56;18.30;48.60
81935;DHT22;71405;47.674;-2.050;2024-03-06T05:12:25;18.30;48.50
81935;DHT22;71405;47.674;-2.050;2024-03-06T05:14:51;18.30;48.30
81935;DHT22;71405;47.674;-2.050;2024-03-06T05:17:18;18.40;48.30
81935;DHT22;71405;47.674;-2.050;2024-03-06T05:19:44;18.40;48.50
81935;DHT22;71405;47.674;-2.050;2024-03-06T05:22:10;18.40;48.30
81935;DHT22;71405;47.674;-2.050;2024-03-06T05:24:37;18.40;48.20
81935;DHT22;71405;47.674;-2.050;2024-03-06T05:27:03;18.40;48.10
81935;DHT22;71405;47.674;-2.050;2024-03-06T05:29:28;18.40;48.20
81935;DHT22;71405;47.674;-2.050;2024-03-06T05:31:54;18.40;48.10
81935;DHT22;71405;47.674;-2.050;2024-03-06T05:34:21;18.40;48.30
81935;DHT22;71405;47.674;-2.050;2024-03-06T05:36:48;18.40;48.30
81935;DHT22;71405;47.674;-2.050;2024-03-06T05:39:13;18.40;48.30
81935;DHT22;71405;47.674;-2.050;2024-03-06T05:41:40;18.40;48.10
81935;DHT22;71405;47.674;-2.050;2024-03-06T05:44:06;18.40;48.00
81935;DHT22;71405;47.674;-2.050;2024-03-06T05:46:32;18.40;48.20
81935;DHT22;71405;47.674;-2.050;2024-03-06T05:48:58;18.40;48.40
81935;DHT22;71405;47.674;-2.050;2024-03-06T05:51:23;18.40;48.20
81935;DHT22;71405;47.674;-2.050;2024-03-06T05:53:49;18.40;48.10
81935;DHT22;71405;47.674;-2.050;2024-03-06T05:56:16;18.40;48.00
81935;DHT22;71405;47.674;-2.050;2024-03-06T05:58:42;18.40;48.20
81935;DHT22;71405;47.674;-2.050;2024-03-06T06:01:08;18.40;48.00
81935;DHT22;71405;47.674;-2.050;2024-03-06T06:03:33;18.50;48.20
81935;DHT22;71405;47.674;-2.050;2024-03-06T06:05:59;18.40;47.90
81935;DHT22;71405;47.674;-2.050;2024-03-06T06:08:25;18.50;47.80
81935;DHT22;71405;47.674;-2.050;2024-03-06T06:10:50;18.50;47.70
81935;DHT22;71405;47.674;-2.050;2024-03-06T06:13:20;18.50;47.80
81935;DHT22;71405;47.674;-2.050;2024-03-06T06:15:46;18.40;47.40
81935;DHT22;71405;47.674;-2.050;2024-03-06T06:18:12;18.40;46.80
81935;DHT22;71405;47.674;-2.050;2024-03-06T06:20:38;18.40;47.10
81935;DHT22;71405;47.674;-2.050;2024-03-06T06:23:04;18.40;46.60
81935;DHT22;71405;47.674;-2.050;2024-03-06T06:25:30;18.40;46.40
81935;DHT22;71405;47.674;-2.050;2024-03-06T06:27:55;18.40;46.60
81935;DHT22;71405;47.674;-2.050;2024-03-06T06:30:22;18.40;46.60
81935;DHT22;71405;47.674;-2.050;2024-03-06T06:32:47;18.40;46.90
81935;DHT22;71405;47.674;-2.050;2024-03-06T06:35:13;18.40;47.20
81935;DHT22;71405;47.674;-2.050;2024-03-06T06:37:39;18.40;47.90
81935;DHT22;71405;47.674;-2.050;2024-03-06T06:40:09;18.30;47.50
81935;DHT22;71405;47.674;-2.050;2024-03-06T06:42:35;18.30;48.00
81935;DHT22;71405;47.674;-2.050;2024-03-06T06:45:01;18.30;47.20
81935;DHT22;71405;47.674;-2.050;2024-03-06T06:47:28;18.30;47.80
81935;DHT22;71405;47.674;-2.050;2024-03-06T06:49:54;18.30;48.30
81935;DHT22;71405;47.674;-2.050;2024-03-06T06:52:20;18.30;49.00
81935;DHT22;71405;47.674;-2.050;2024-03-06T06:54:46;18.30;48.80
81935;DHT22;71405;47.674;-2.050;2024-03-06T06:57:11;18.20;47.90
81935;DHT22;71405;47.674;-2.050;2024-03-06T06:59:37;18.20;47.60
81935;DHT22;71405;47.674;-2.050;2024-03-06T07:02:03;18.20;48.10
81935;DHT22;71405;47.674;-2.050;2024-03-06T07:04:28;18.20;48.90
81935;DHT22;71405;47.674;-2.050;2024-03-06T07:06:54;18.20;49.00
81935;DHT22;71405;47.674;-2.050;2024-03-06T07:09:20;18.20;49.30
81935;DHT22;71405;47.674;-2.050;2024-03-06T07:11:46;18.20;48.80
81935;DHT22;71405;47.674;-2.050;2024-03-06T07:14:12;18.20;49.20
81935;DHT22;71405;47.674;-2.050;2024-03-06T07:16:45;18.20;49.50
81935;DHT22;71405;47.674;-2.050;2024-03-06T07:19:11;18.10;50.30
81935;DHT22;71405;47.674;-2.050;2024-03-06T07:21:37;18.10;52.00
81935;DHT22;71405;47.674;-2.050;2024-03-06T07:24:03;18.20;52.20
81935;DHT22;71405;47.674;-2.050;2024-03-06T07:26:32;18.20;52.00
81935;DHT22;71405;47.674;-2.050;2024-03-06T07:28:57;18.10;52.10
81935;DHT22;71405;47.674;-2.050;2024-03-06T07:31:24;18.10;51.90
81935;DHT22;71405;47.674;-2.050;2024-03-06T07:33:50;18.10;52.00
81935;DHT22;71405;47.674;-2.050;2024-03-06T07:36:16;18.10;51.90
81935;DHT22;71405;47.674;-2.050;2024-03-06T07:38:42;18.10;50.90
81935;DHT22;71405;47.674;-2.050;2024-03-06T07:41:08;18.10;52.00
81935;DHT22;71405;47.674;-2.050;2024-03-06T07:43:34;18.10;51.90
81935;DHT22;71405;47.674;-2.050;2024-03-06T07:45:59;18.10;51.50
81935;DHT22;71405;47.674;-2.050;2024-03-06T07:48:25;18.10;51.70
81935;DHT22;71405;47.674;-2.050;2024-03-06T07:50:51;18.10;51.50
81935;DHT22;71405;47.674;-2.050;2024-03-06T07:53:16;18.10;51.30
81935;DHT22;71405;47.674;-2.050;2024-03-06T07:55:42;18.10;51.20
81935;DHT22;71405;47.674;-2.050;2024-03-06T07:58:08;18.10;51.10
81935;DHT22;71405;47.674;-2.050;2024-03-06T08:00:35;18.10;51.10
81935;DHT22;71405;47.674;-2.050;2024-03-06T08:03:01;18.10;51.40
81935;DHT22;71405;47.674;-2.050;2024-03-06T08:05:28;18.10;51.10
81935;DHT22;71405;47.674;-2.050;2024-03-06T08:07:53;18.10;51.10
81935;DHT22;71405;47.674;-2.050;2024-03-06T08:10:19;18.10;50.70
81935;DHT22;71405;47.674;-2.050;2024-03-06T08:12:45;18.10;50.80
81935;DHT22;71405;47.674;-2.050;2024-03-06T08:15:14;18.10;51.00
81935;DHT22;71405;47.674;-2.050;2024-03-06T08:17:41;18.10;51.00
81935;DHT22;71405;47.674;-2.050;2024-03-06T08:20:08;18.10;50.60
81935;DHT22;71405;47.674;-2.050;2024-03-06T08:22:35;18.10;50.90
81935;DHT22;71405;47.674;-2.050;2024-03-06T08:25:07;18.10;51.00
81935;DHT22;71405;47.674;-2.050;2024-03-06T08:27:35;18.10;50.90
81935;DHT22;71405;47.674;-2.050;2024-03-06T08:30:02;18.10;50.80
81935;DHT22;71405;47.674;-2.050;2024-03-06T08:32:30;18.10;50.60
81935;DHT22;71405;47.674;-2.050;2024-03-06T08:34:57;18.10;50.80
81935;DHT22;71405;47.674;-2.050;2024-03-06T08:37:22;18.10;50.30
81935;DHT22;71405;47.674;-2.050;2024-03-06T08:39:48;18.10;50.90
81935;DHT22;71405;47.674;-2.050;2024-03-06T08:42:14;18.10;50.80
81935;DHT22;71405;47.674;-2.050;2024-03-06T08:44:44;18.10;51.10
81935;DHT22;71405;47.674;-2.050;2024-03-06T08:47:09;18.10;50.70
81935;DHT22;71405;47.674;-2.050;2024-03-06T08:49:35;18.10;50.70
81935;DHT22;71405;47.674;-2.050;2024-03-06T08:52:01;18.10;50.40
81935;DHT22;71405;47.674;-2.050;2024-03-06T08:54:26;18.10;50.30
81935;DHT22;71405;47.674;-2.050;2024-03-06T08:56:52;18.10;50.30
81935;DHT22;71405;47.674;-2.050;2024-03-06T08:59:23;18.10;50.10
81935;DHT22;71405;47.674;-2.050;2024-03-06T09:01:52;18.00;50.70
81935;DHT22;71405;47.674;-2.050;2024-03-06T09:04:17;18.10;50.00
81935;DHT22;71405;47.674;-2.050;2024-03-06T09:06:43;18.10;50.10
81935;DHT22;71405;47.674;-2.050;2024-03-06T09:09:09;18.10;50.20
81935;DHT22;71405;47.674;-2.050;2024-03-06T09:11:35;18.10;50.00
81935;DHT22;71405;47.674;-2.050;2024-03-06T09:14:00;18.10;50.00
81935;DHT22;71405;47.674;-2.050;2024-03-06T09:16:26;18.10;49.70
81935;DHT22;71405;47.674;-2.050;2024-03-06T09:18:52;18.10;50.10
81935;DHT22;71405;47.674;-2.050;2024-03-06T09:21:18;18.10;49.90
81935;DHT22;71405;47.674;-2.050;2024-03-06T09:23:45;18.10;49.70
81935;DHT22;71405;47.674;-2.050;2024-03-06T09:26:11;18.10;49.60
81935;DHT22;71405;47.674;-2.050;2024-03-06T09:28:36;18.10;50.20
81935;DHT22;71405;47.674;-2.050;2024-03-06T09:31:04;18.10;50.00
81935;DHT22;71405;47.674;-2.050;2024-03-06T09:33:30;18.10;49.50
81935;DHT22;71405;47.674;-2.050;2024-03-06T09:35:56;18.10;50.30
81935;DHT22;71405;47.674;-2.050;2024-03-06T09:38:22;18.00;50.10
81935;DHT22;71405;47.674;-2.050;2024-03-06T09:40:48;18.10;50.20
81935;DHT22;71405;47.674;-2.050;2024-03-06T09:43:14;18.00;49.90
81935;DHT22;71405;47.674;-2.050;2024-03-06T09:45:40;18.10;50.10
81935;DHT22;71405;47.674;-2.050;2024-03-06T09:48:06;18.10;50.00
81935;DHT22;71405;47.674;-2.050;2024-03-06T09:50:35;18.10;50.30
81935;DHT22;71405;47.674;-2.050;2024-03-06T09:53:04;18.10;49.70
81935;DHT22;71405;47.674;-2.050;2024-03-06T09:55:32;18.10;49.60
81935;DHT22;71405;47.674;-2.050;2024-03-06T09:57:59;18.10;50.00
81935;DHT22;71405;47.674;-2.050;2024-03-06T10:00:24;18.10;50.00
81935;DHT22;71405;47.674;-2.050;2024-03-06T10:02:57;18.10;50.30
81935;DHT22;71405;47.674;-2.050;2024-03-06T10:05:26;18.10;49.40
81935;DHT22;71405;47.674;-2.050;2024-03-06T10:07:53;18.10;49.70
81935;DHT22;71405;47.674;-2.050;2024-03-06T10:10:19;18.10;50.30
81935;DHT22;71405;47.674;-2.050;2024-03-06T10:12:46;18.10;50.10
81935;DHT22;71405;47.674;-2.050;2024-03-06T10:15:13;18.10;49.40
81935;DHT22;71405;47.674;-2.050;2024-03-06T10:17:39;18.20;49.80
81935;DHT22;71405;47.674;-2.050;2024-03-06T10:22:52;18.20;49.70
81935;DHT22;71405;47.674;-2.050;2024-03-06T10:25:19;18.20;50.10
81935;DHT22;71405;47.674;-2.050;2024-03-06T10:27:45;18.20;49.80
81935;DHT22;71405;47.674;-2.050;2024-03-06T10:30:12;18.20;50.00
81935;DHT22;71405;47.674;-2.050;2024-03-06T10:32:41;18.20;49.80
81935;DHT22;71405;47.674;-2.050;2024-03-06T10:35:18;18.20;49.80
81935;DHT22;71405;47.674;-2.050;2024-03-06T10:37:45;18.20;49.60
81935;DHT22;71405;47.674;-2.050;2024-03-06T10:40:14;18.30;49.50
81935;DHT22;71405;47.674;-2.050;2024-03-06T10:42:41;18.30;49.60
81935;DHT22;71405;47.674;-2.050;2024-03-06T10:45:08;18.30;49.30
81935;DHT22;71405;47.674;-2.050;2024-03-06T10:47:39;18.30;49.10
81935;DHT22;71405;47.674;-2.050;2024-03-06T10:50:06;18.30;48.60
81935;DHT22;71405;47.674;-2.050;2024-03-06T10:52:36;18.30;49.00
81935;DHT22;71405;47.674;-2.050;2024-03-06T10:55:04;18.40;48.70
81935;DHT22;71405;47.674;-2.050;2024-03-06T10:57:30;18.40;48.60
81935;DHT22;71405;47.674;-2.050;2024-03-06T10:59:57;18.40;48.70
81935;DHT22;71405;47.674;-2.050;2024-03-06T11:02:28;18.40;48.70
81935;DHT22;71405;47.674;-2.050;2024-03-06T11:04:54;18.40;49.10
81935;DHT22;71405;47.674;-2.050;2024-03-06T11:07:20;18.40;49.40
81935;DHT22;71405;47.674;-2.050;2024-03-06T11:09:46;18.40;49.60
81935;DHT22;71405;47.674;-2.050;2024-03-06T11:12:35;18.40;49.40
81935;DHT22;71405;47.674;-2.050;2024-03-06T11:15:17;18.40;49.40
81935;DHT22;71405;47.674;-2.050;2024-03-06T11:17:42;18.40;49.70
81935;DHT22;71405;47.674;-2.050;2024-03-06T11:20:12;18.40;49.90
81935;DHT22;71405;47.674;-2.050;2024-03-06T11:28:19;18.50;49.10
81935;DHT22;71405;47.674;-2.050;2024-03-06T11:30:46;18.50;50.00
81935;DHT22;71405;47.674;-2.050;2024-03-06T11:33:14;18.50;50.20
81935;DHT22;71405;47.674;-2.050;2024-03-06T11:35:42;18.50;50.30
81935;DHT22;71405;47.674;-2.050;2024-03-06T11:38:16;18.50;50.50
81935;DHT22;71405;47.674;-2.050;2024-03-06T11:40:43;18.60;51.00
81935;DHT22;71405;47.674;-2.050;2024-03-06T11:43:27;18.50;50.80
81935;DHT22;71405;47.674;-2.050;2024-03-06T11:45:53;18.60;50.90
81935;DHT22;71405;47.674;-2.050;2024-03-06T11:48:19;18.60;50.80
81935;DHT22;71405;47.674;-2.050;2024-03-06T11:50:47;18.60;50.80
81935;DHT22;71405;47.674;-2.050;2024-03-06T11:53:16;18.60;50.70
81935;DHT22;71405;47.674;-2.050;2024-03-06T11:55:43;18.60;50.70
81935;DHT22;71405;47.674;-2.050;2024-03-06T11:58:08;18.60;50.80
81935;DHT22;71405;47.674;-2.050;2024-03-06T12:00:37;18.60;50.70
81935;DHT22;71405;47.674;-2.050;2024-03-06T12:03:03;18.60;50.60
81935;DHT22;71405;47.674;-2.050;2024-03-06T12:05:31;18.60;50.90
81935;DHT22;71405;47.674;-2.050;2024-03-06T12:07:56;18.60;50.70
81935;DHT22;71405;47.674;-2.050;2024-03-06T12:10:22;18.70;50.40
81935;DHT22;71405;47.674;-2.050;2024-03-06T12:12:48;18.70;50.70
81935;DHT22;71405;47.674;-2.050;2024-03-06T12:15:14;18.60;50.50
81935;DHT22;71405;47.674;-2.050;2024-03-06T12:17:48;18.60;50.40
81935;DHT22;71405;47.674;-2.050;2024-03-06T12:20:17;18.60;50.00
81935;DHT22;71405;47.674;-2.050;2024-03-06T12:22:50;18.60;50.10
81935;DHT22;71405;47.674;-2.050;2024-03-06T12:25:26;18.60;50.10
81935;DHT22;71405;47.674;-2.050;2024-03-06T12:27:53;18.60;49.50
81935;DHT22;71405;47.674;-2.050;2024-03-06T12:30:21;18.60;49.60
81935;DHT22;71405;47.674;-2.050;2024-03-06T12:33:01;18.60;49.50
81935;DHT22;71405;47.674;-2.050;2024-03-06T12:35:30;18.60;49.70
81935;DHT22;71405;47.674;-2.050;2024-03-06T12:37:56;18.60;49.70
81935;DHT22;71405;47.674;-2.050;2024-03-06T12:40:23;18.50;49.60
81935;DHT22;71405;47.674;-2.050;2024-03-06T12:42:48;18.50;49.60
81935;DHT22;71405;47.674;-2.050;2024-03-06T12:45:20;18.50;50.20
81935;DHT22;71405;47.674;-2.050;2024-03-06T12:47:47;18.50;49.80
81935;DHT22;71405;47.674;-2.050;2024-03-06T12:50:15;18.50;49.90
81935;DHT22;71405;47.674;-2.050;2024-03-06T12:52:41;18.50;49.90
81935;DHT22;71405;47.674;-2.050;2024-03-06T12:55:09;18.50;50.00
81935;DHT22;71405;47.674;-2.050;2024-03-06T12:57:35;18.50;49.90
81935;DHT22;71405;47.674;-2.050;2024-03-06T13:00:01;18.50;49.90
81935;DHT22;71405;47.674;-2.050;2024-03-06T13:02:27;18.50;50.40
81935;DHT22;71405;47.674;-2.050;2024-03-06T13:04:53;18.40;50.50
81935;DHT22;71405;47.674;-2.050;2024-03-06T13:07:19;18.40;50.90
81935;DHT22;71405;47.674;-2.050;2024-03-06T13:09:45;18.40;50.90
81935;DHT22;71405;47.674;-2.050;2024-03-06T13:12:11;18.40;50.70
81935;DHT22;71405;47.674;-2.050;2024-03-06T13:14:37;18.40;50.70
81935;DHT22;71405;47.674;-2.050;2024-03-06T13:17:02;18.40;50.90
81935;DHT22;71405;47.674;-2.050;2024-03-06T13:19:29;18.40;50.90
81935;DHT22;71405;47.674;-2.050;2024-03-06T13:21:54;18.40;51.10
81935;DHT22;71405;47.674;-2.050;2024-03-06T13:24:20;18.40;51.30
81935;DHT22;71405;47.674;-2.050;2024-03-06T13:26:46;18.40;51.50
81935;DHT22;71405;47.674;-2.050;2024-03-06T13:29:13;18.40;51.20
81935;DHT22;71405;47.674;-2.050;2024-03-06T13:31:39;18.40;51.30
81935;DHT22;71405;47.674;-2.050;2024-03-06T13:34:04;18.40;51.00
81935;DHT22;71405;47.674;-2.050;2024-03-06T13:36:30;18.30;51.20
81935;DHT22;71405;47.674;-2.050;2024-03-06T13:38:56;18.30;51.40
81935;DHT22;71405;47.674;-2.050;2024-03-06T13:41:22;18.30;51.20
81935;DHT22;71405;47.674;-2.050;2024-03-06T13:43:48;18.30;51.10
81935;DHT22;71405;47.674;-2.050;2024-03-06T13:46:14;18.30;50.90
81935;DHT22;71405;47.674;-2.050;2024-03-06T13:48:40;18.30;51.10
81935;DHT22;71405;47.674;-2.050;2024-03-06T13:51:06;18.30;51.40
81935;DHT22;71405;47.674;-2.050;2024-03-06T13:53:31;18.30;51.20
81935;DHT22;71405;47.674;-2.050;2024-03-06T13:55:57;18.30;51.10
81935;DHT22;71405;47.674;-2.050;2024-03-06T13:58:23;18.30;51.40
81935;DHT22;71405;47.674;-2.050;2024-03-06T14:00:49;18.30;51.20
81935;DHT22;71405;47.674;-2.050;2024-03-06T14:03:14;18.30;51.80
81935;DHT22;71405;47.674;-2.050;2024-03-06T14:05:40;18.30;50.90
81935;DHT22;71405;47.674;-2.050;2024-03-06T14:08:06;18.30;51.70
81935;DHT22;71405;47.674;-2.050;2024-03-06T14:10:32;18.30;51.40
81935;DHT22;71405;47.674;-2.050;2024-03-06T14:13:02;18.30;51.90
81935;DHT22;71405;47.674;-2.050;2024-03-06T14:15:27;18.30;51.60
81935;DHT22;71405;47.674;-2.050;2024-03-06T14:17:53;18.30;51.20
81935;DHT22;71405;47.674;-2.050;2024-03-06T14:20:20;18.30;51.00
81935;DHT22;71405;47.674;-2.050;2024-03-06T14:22:46;18.30;51.20
81935;DHT22;71405;47.674;-2.050;2024-03-06T14:25:12;18.30;51.20
81935;DHT22;71405;47.674;-2.050;2024-03-06T14:27:38;18.30;51.20
81935;DHT22;71405;47.674;-2.050;2024-03-06T14:30:05;18.30;51.40
81935;DHT22;71405;47.674;-2.050;2024-03-06T14:32:34;18.30;50.90
81935;DHT22;71405;47.674;-2.050;2024-03-06T14:35:01;18.30;51.10
81935;DHT22;71405;47.674;-2.050;2024-03-06T14:37:27;18.30;51.40
81935;DHT22;71405;47.674;-2.050;2024-03-06T14:39:53;18.30;51.40
81935;DHT22;71405;47.674;-2.050;2024-03-06T14:42:19;18.30;51.40
81935;DHT22;71405;47.674;-2.050;2024-03-06T14:44:45;18.30;51.70
81935;DHT22;71405;47.674;-2.050;2024-03-06T14:47:12;18.30;51.70
81935;DHT22;71405;47.674;-2.050;2024-03-06T14:49:39;18.30;51.50
81935;DHT22;71405;47.674;-2.050;2024-03-06T14:52:05;18.30;51.40
81935;DHT22;71405;47.674;-2.050;2024-03-06T14:54:32;18.30;51.70
81935;DHT22;71405;47.674;-2.050;2024-03-06T14:56:57;18.30;51.60
81935;DHT22;71405;47.674;-2.050;2024-03-06T14:59:23;18.30;51.50
81935;DHT22;71405;47.674;-2.050;2024-03-06T15:01:49;18.30;51.60
81935;DHT22;71405;47.674;-2.050;2024-03-06T15:04:15;18.30;51.50
81935;DHT22;71405;47.674;-2.050;2024-03-06T15:06:42;18.30;51.60
81935;DHT22;71405;47.674;-2.050;2024-03-06T15:09:07;18.30;51.70
81935;DHT22;71405;47.674;-2.050;2024-03-06T15:11:38;18.30;51.70
81935;DHT22;71405;47.674;-2.050;2024-03-06T15:14:03;18.30;51.70
81935;DHT22;71405;47.674;-2.050;2024-03-06T15:16:30;18.20;51.80
81935;DHT22;71405;47.674;-2.050;2024-03-06T15:18:56;18.30;51.50
81935;DHT22;71405;47.674;-2.050;2024-03-06T15:21:23;18.30;51.40